LFPB/LBG METAR and TAF weather

Enter ICAO airport designator
Station Type Date Time Source
LFPB METAR 2019/10/14 06:30 UTC NOAA

LFPB 140630Z AUTO 07003KT 050V110 CAVOK 14/13 Q1009 NOSIG


Station Type Date Time Source
LFPB Decoded METAR 2019/10/14 06:30 UTC NOAA

Paris / Le Bourget, France (LFPB) 48-58N 002-27E 65M
Oct 14, 2019 - 02:30 AM EDT / 2019.10.14 0630 UTC
Wind: from the ENE (070 degrees) at 3 MPH (3 KT) (direction variable):0
Visibility: greater than 7 mile(s):0
Temperature: 57 F (14 C)
Dew Point: 55 F (13 C)
Relative Humidity: 93%
Pressure (altimeter): 29.80 in. Hg (1009 hPa)
ob: LFPB 140630Z AUTO 07003KT 050V110 CAVOK 14/13 Q1009 NOSIG
cycle: 6

Station Type Date Time Source
LFPB TAF 2019/10/14 06:21 UTC NOAA

TAF LFPB 140500Z 1406/1506 13010KT CAVOK PROB40
TEMPO 1413/1420 16015G25KT 4000 SHRA SCT040CB PROB40
TEMPO 1418/1419 20020G45KT 2000 TSRAGR
BECMG 1419/1421 21012KT BKN020 PROB40
TEMPO 1423/1506 4000 -RA BKN012 BKN040

Example: see airport list